createdAt,value
2023-01-23T00:01:20.118Z,25.37
2023-01-23T00:03:47.230Z,26.13
2023-01-23T00:06:16.508Z,25.20
2023-01-23T00:08:45.344Z,24.87
2023-01-23T00:11:16.539Z,26.77
2023-01-23T00:13:43.380Z,23.50
2023-01-23T00:16:20.537Z,25.00
2023-01-23T00:18:47.972Z,22.77
2023-01-23T00:21:17.374Z,27.63
2023-01-23T00:23:52.974Z,26.57
2023-01-23T00:26:22.055Z,25.77
2023-01-23T00:28:49.582Z,26.83
2023-01-23T00:31:24.916Z,25.03
2023-01-23T00:33:57.954Z,25.20
2023-01-23T00:36:27.693Z,24.37
2023-01-23T00:38:54.504Z,25.67
2023-01-23T00:41:23.985Z,27.27
2023-01-23T00:43:52.178Z,28.40
2023-01-23T00:46:22.343Z,30.07
2023-01-23T00:48:49.803Z,27.77
2023-01-23T00:51:16.906Z,25.83
2023-01-23T00:53:44.393Z,28.33
2023-01-23T00:56:11.566Z,27.03
2023-01-23T00:58:38.278Z,29.13
2023-01-23T01:01:05.319Z,26.60
2023-01-23T01:03:32.153Z,27.13
2023-01-23T01:05:58.899Z,27.43
2023-01-23T01:08:25.672Z,27.03
2023-01-23T01:10:52.459Z,28.17
2023-01-23T01:13:21.519Z,25.23
2023-01-23T01:15:52.617Z,25.43
2023-01-23T01:18:20.762Z,25.30
2023-01-23T01:20:47.861Z,24.40
2023-01-23T01:23:15.188Z,21.20
2023-01-23T01:25:42.105Z,25.67
2023-01-23T01:28:08.930Z,21.17
2023-01-23T01:30:36.855Z,22.03
2023-01-23T01:33:04.420Z,22.87
2023-01-23T01:35:31.314Z,23.90
2023-01-23T01:37:58.187Z,25.23
2023-01-23T01:40:32.241Z,22.03
2023-01-23T01:43:02.807Z,21.67
2023-01-23T01:46:09.844Z,26.90
2023-01-23T01:49:01.462Z,24.27
2023-01-23T01:51:34.251Z,27.70
2023-01-23T01:54:16.319Z,23.50
2023-01-23T01:56:56.264Z,25.37
2023-01-23T01:59:27.228Z,28.73
2023-01-23T02:02:06.130Z,22.23
2023-01-23T02:04:39.565Z,25.30
2023-01-23T02:07:14.961Z,27.43
2023-01-23T02:09:42.161Z,23.90
2023-01-23T02:12:09.264Z,23.07
2023-01-23T02:14:36.334Z,24.70
2023-01-23T02:17:03.643Z,27.77
2023-01-23T02:19:37.046Z,25.13
2023-01-23T02:22:32.815Z,23.17
2023-01-23T02:25:14.770Z,21.83
2023-01-23T02:27:42.948Z,22.80
2023-01-23T02:30:11.015Z,25.27
2023-01-23T02:32:37.987Z,25.87
2023-01-23T02:35:15.190Z,28.00
2023-01-23T02:37:46.843Z,27.07
2023-01-23T02:40:14.851Z,22.30
2023-01-23T02:42:44.835Z,22.77
2023-01-23T02:45:11.670Z,22.57
2023-01-23T02:47:38.443Z,28.50
2023-01-23T02:50:05.584Z,21.40
2023-01-23T02:52:34.149Z,20.27
2023-01-23T02:55:00.999Z,20.87
2023-01-23T02:57:27.801Z,22.00
2023-01-23T03:00:13.279Z,23.10
2023-01-23T03:02:40.140Z,21.13
2023-01-23T03:05:07.393Z,23.73
2023-01-23T03:07:34.602Z,24.57
2023-01-23T03:10:01.873Z,26.50
2023-01-23T03:12:28.706Z,21.97
2023-01-23T03:14:56.396Z,19.73
2023-01-23T03:17:23.685Z,22.23
2023-01-23T03:19:50.884Z,20.60
2023-01-23T03:22:17.689Z,21.50
2023-01-23T03:24:44.434Z,22.30
2023-01-23T03:27:11.301Z,21.63
2023-01-23T03:29:56.369Z,22.13
2023-01-23T03:32:23.227Z,22.13
2023-01-23T03:34:50.022Z,20.57
2023-01-23T03:37:17.521Z,21.00
2023-01-23T03:40:03.016Z,19.27
2023-01-23T03:42:30.306Z,22.10
2023-01-23T03:44:57.306Z,21.90
2023-01-23T03:47:26.317Z,21.93
2023-01-23T03:49:53.396Z,20.77
2023-01-23T03:52:20.269Z,21.40
2023-01-23T03:54:47.083Z,20.57
2023-01-23T03:57:13.928Z,21.07
2023-01-23T03:59:40.636Z,19.33
2023-01-23T04:02:07.714Z,19.03
2023-01-23T04:04:35.625Z,21.40
2023-01-23T04:07:02.958Z,19.37
2023-01-23T04:09:30.333Z,21.00
2023-01-23T04:11:58.775Z,17.03
2023-01-23T04:14:26.681Z,20.90
2023-01-23T04:16:54.077Z,22.73
2023-01-23T04:19:21.572Z,17.63
2023-01-23T04:21:49.106Z,20.23
2023-01-23T04:24:17.244Z,21.43
2023-01-23T04:26:44.909Z,22.30
2023-01-23T04:29:12.433Z,21.17
2023-01-23T04:31:39.398Z,19.67
2023-01-23T04:34:06.246Z,20.50
2023-01-23T04:36:33.041Z,18.73
2023-01-23T04:38:59.881Z,17.93
2023-01-23T04:41:28.852Z,19.77
2023-01-23T04:43:55.596Z,18.47
2023-01-23T04:46:22.431Z,19.70
2023-01-23T04:48:49.256Z,17.70
2023-01-23T04:51:16.311Z,19.23
2023-01-23T04:53:43.113Z,22.00
2023-01-23T04:56:10.073Z,17.10
2023-01-23T04:58:36.833Z,18.30
2023-01-23T05:01:05.467Z,17.00
2023-01-23T05:03:32.954Z,16.80
2023-01-23T05:05:59.791Z,18.63
2023-01-23T05:08:26.662Z,21.93
2023-01-23T05:10:53.405Z,17.63
2023-01-23T05:13:20.340Z,19.40
2023-01-23T05:15:47.137Z,17.13
2023-01-23T05:18:13.950Z,19.03
2023-01-23T05:20:40.770Z,20.20
2023-01-23T05:23:07.526Z,23.27
2023-01-23T05:25:34.361Z,23.13
2023-01-23T05:28:01.240Z,17.90
2023-01-23T05:30:28.038Z,17.70
2023-01-23T05:32:54.828Z,20.73
2023-01-23T05:35:21.886Z,18.03
2023-01-23T05:37:52.581Z,18.63
2023-01-23T05:40:20.464Z,20.97
2023-01-23T05:42:48.111Z,17.10
2023-01-23T05:45:15.606Z,20.77
2023-01-23T05:47:43.233Z,17.00
2023-01-23T05:50:17.949Z,16.97
2023-01-23T05:52:45.765Z,19.17
2023-01-23T05:55:13.086Z,19.90
2023-01-23T05:57:40.136Z,19.73
2023-01-23T06:00:08.554Z,20.60
2023-01-23T06:02:35.423Z,18.70
2023-01-23T06:05:02.987Z,21.20
2023-01-23T06:07:29.924Z,20.50
2023-01-23T06:09:56.782Z,18.33
2023-01-23T06:12:23.708Z,20.60
2023-01-23T06:14:50.657Z,20.07
2023-01-23T06:17:17.965Z,19.50
2023-01-23T06:19:44.940Z,16.53
2023-01-23T06:22:11.734Z,20.70
2023-01-23T06:24:38.753Z,17.97
2023-01-23T06:27:08.390Z,19.77
2023-01-23T06:29:36.160Z,19.07
2023-01-23T06:32:04.239Z,15.40
2023-01-23T06:34:31.226Z,17.03
2023-01-23T06:36:58.166Z,18.63
2023-01-23T06:39:25.023Z,18.40
2023-01-23T06:41:51.851Z,16.20
2023-01-23T06:44:18.674Z,17.53
2023-01-23T06:46:45.731Z,20.63
2023-01-23T06:49:12.613Z,18.67
2023-01-23T06:51:39.449Z,17.20
2023-01-23T06:54:06.322Z,19.23
2023-01-23T06:56:33.109Z,17.43
2023-01-23T06:58:59.880Z,19.33
2023-01-23T07:01:26.766Z,17.60
2023-01-23T07:03:53.603Z,17.63
2023-01-23T07:06:20.552Z,20.33
2023-01-23T07:08:47.505Z,18.00
2023-01-23T07:11:14.443Z,19.93
2023-01-23T07:13:41.335Z,21.17
2023-01-23T07:16:08.399Z,18.20
2023-01-23T07:18:36.082Z,19.37
2023-01-23T07:21:05.694Z,21.57
2023-01-23T07:23:33.116Z,18.40
2023-01-23T07:26:07.545Z,18.80
2023-01-23T07:28:34.354Z,22.13
2023-01-23T07:31:01.518Z,23.07
2023-01-23T07:33:28.512Z,21.73
2023-01-23T07:35:55.853Z,19.97
2023-01-23T07:38:25.894Z,20.07
2023-01-23T07:40:53.214Z,22.03
2023-01-23T07:43:20.098Z,19.53
2023-01-23T07:45:46.968Z,19.27
2023-01-23T07:48:14.157Z,22.57
2023-01-23T07:50:41.191Z,20.50
2023-01-23T07:53:08.500Z,21.27
2023-01-23T07:55:38.338Z,20.53
2023-01-23T07:58:05.229Z,23.17
2023-01-23T08:00:32.387Z,17.37
2023-01-23T08:02:59.453Z,21.67
2023-01-23T08:05:26.441Z,21.23
2023-01-23T08:08:07.319Z,23.00
2023-01-23T08:10:40.161Z,21.67
2023-01-23T08:13:07.307Z,22.93
2023-01-23T08:15:34.224Z,21.47
2023-01-23T08:18:01.330Z,21.63
2023-01-23T08:20:28.377Z,21.43
2023-01-23T08:22:56.283Z,23.50
2023-01-23T08:25:23.173Z,18.50
2023-01-23T08:27:50.042Z,20.53
2023-01-23T08:30:17.283Z,19.70
2023-01-23T08:32:44.403Z,20.03
2023-01-23T08:35:11.270Z,23.37
2023-01-23T08:37:38.127Z,20.60
2023-01-23T08:40:05.479Z,19.10
2023-01-23T08:42:32.418Z,19.70
2023-01-23T08:44:59.263Z,18.63
2023-01-23T08:47:26.094Z,17.53
2023-01-23T08:49:53.113Z,18.50
2023-01-23T08:52:20.035Z,14.93
2023-01-23T08:54:46.989Z,18.00
2023-01-23T08:57:13.796Z,17.70
2023-01-23T08:59:42.543Z,16.63
2023-01-23T09:02:12.675Z,15.73
2023-01-23T09:04:39.883Z,14.70
2023-01-23T09:07:06.747Z,15.63
2023-01-23T09:09:33.729Z,14.90
2023-01-23T09:12:00.884Z,12.93
2023-01-23T09:14:27.676Z,13.87
2023-01-23T09:16:54.618Z,12.10
2023-01-23T09:19:21.661Z,13.23
2023-01-23T09:21:48.520Z,14.07
2023-01-23T09:24:16.595Z,16.83
2023-01-23T09:26:43.709Z,15.53
2023-01-23T09:29:10.723Z,15.00
2023-01-23T09:31:37.808Z,16.00
2023-01-23T09:34:05.571Z,18.00
2023-01-23T09:36:42.441Z,19.67
2023-01-23T09:39:11.467Z,17.07
2023-01-23T09:41:40.313Z,17.97
2023-01-23T09:44:20.898Z,20.07
2023-01-23T09:47:02.504Z,20.07
2023-01-23T09:49:53.170Z,18.73
2023-01-23T09:52:24.093Z,16.60
2023-01-23T09:55:02.579Z,18.93
2023-01-23T09:57:35.617Z,15.77
2023-01-23T10:00:22.642Z,17.77
2023-01-23T10:02:50.243Z,16.40
2023-01-23T10:05:19.084Z,14.53
2023-01-23T10:08:03.558Z,14.27
2023-01-23T10:10:59.152Z,14.37
2023-01-23T10:13:48.668Z,12.17
2023-01-23T10:16:49.125Z,16.70
2023-01-23T10:19:35.846Z,14.07
2023-01-23T10:22:40.362Z,15.47
2023-01-23T10:25:28.927Z,14.30
2023-01-23T10:28:16.400Z,12.27
2023-01-23T10:30:49.934Z,12.83
2023-01-23T10:33:18.616Z,14.70
2023-01-23T10:36:02.231Z,13.23
2023-01-23T10:38:48.522Z,15.07
2023-01-23T10:41:23.366Z,14.33
2023-01-23T10:43:52.395Z,13.40
2023-01-23T10:46:30.684Z,15.20
2023-01-23T10:49:00.826Z,14.87
2023-01-23T10:51:44.102Z,17.87
2023-01-23T10:54:29.549Z,14.73
2023-01-23T10:57:08.312Z,15.73
2023-01-23T10:59:37.854Z,14.57
2023-01-23T11:02:20.149Z,13.33
2023-01-23T11:04:51.799Z,16.33
2023-01-23T11:07:23.328Z,15.07
2023-01-23T11:10:04.570Z,13.87
2023-01-23T11:12:34.183Z,13.60
2023-01-23T11:15:27.258Z,14.60
2023-01-23T11:17:57.482Z,14.80
2023-01-23T11:20:31.068Z,14.13
2023-01-23T11:23:12.654Z,15.80
2023-01-23T11:25:41.139Z,12.67
2023-01-23T11:28:30.011Z,13.67
2023-01-23T11:31:27.253Z,14.37
2023-01-23T11:33:59.169Z,13.97
2023-01-23T11:36:51.209Z,15.17
2023-01-23T11:39:21.077Z,14.97
2023-01-23T11:41:48.230Z,14.90
2023-01-23T11:44:23.097Z,13.77
2023-01-23T11:47:11.191Z,14.73
2023-01-23T11:49:50.214Z,16.23
2023-01-23T11:52:45.138Z,15.50
2023-01-23T11:55:34.566Z,12.83
2023-01-23T11:58:49.026Z,15.43
2023-01-23T12:01:33.823Z,15.30
2023-01-23T12:04:22.686Z,15.63
2023-01-23T12:06:52.547Z,12.83
2023-01-23T12:09:22.048Z,13.10
2023-01-23T12:12:18.886Z,12.97
2023-01-23T12:15:06.385Z,12.80
2023-01-23T12:17:48.154Z,12.50
2023-01-23T12:20:38.842Z,12.67
2023-01-23T12:23:18.080Z,13.67
2023-01-23T12:25:55.561Z,12.67
2023-01-23T12:28:34.107Z,15.07
2023-01-23T12:31:19.470Z,14.77
2023-01-23T12:34:16.852Z,14.33
2023-01-23T12:37:29.079Z,15.40
2023-01-23T12:40:14.021Z,14.53
2023-01-23T12:42:57.789Z,15.43
2023-01-23T12:45:28.327Z,15.60
2023-01-23T12:48:21.462Z,14.43
2023-01-23T12:50:58.342Z,15.10
2023-01-23T12:53:26.384Z,15.73
2023-01-23T12:55:59.755Z,13.90
2023-01-23T12:58:31.073Z,16.40
2023-01-23T13:01:33.325Z,18.20
2023-01-23T13:04:10.314Z,15.37
2023-01-23T13:06:40.991Z,15.03
2023-01-23T13:09:34.382Z,15.70
2023-01-23T13:12:20.588Z,15.23
2023-01-23T13:15:13.799Z,17.90
2023-01-23T13:17:50.474Z,16.90
2023-01-23T13:20:44.116Z,16.73
2023-01-23T13:23:21.069Z,14.93
2023-01-23T13:25:48.443Z,15.57
2023-01-23T13:28:44.485Z,16.13
2023-01-23T13:31:35.605Z,15.93
2023-01-23T13:34:16.047Z,15.63
2023-01-23T13:36:51.673Z,17.17
2023-01-23T13:39:19.693Z,18.03
2023-01-23T13:41:51.654Z,17.20
2023-01-23T13:44:41.540Z,17.77
2023-01-23T14:22:40.807Z,22.43
2023-01-23T14:25:17.546Z,21.93
2023-01-23T14:27:53.330Z,22.67
2023-01-23T14:30:32.746Z,23.07
2023-01-23T14:33:00.063Z,25.33
2023-01-23T14:35:32.746Z,27.03
2023-01-23T14:38:05.624Z,25.03
2023-01-23T14:40:48.837Z,25.57
2023-01-23T14:43:22.077Z,23.67
2023-01-23T14:45:57.913Z,24.37
2023-01-23T14:48:24.888Z,28.07
2023-01-23T14:51:21.955Z,27.80
2023-01-23T14:54:22.955Z,30.10
2023-01-23T14:56:51.116Z,31.50
2023-01-23T14:59:34.970Z,27.07
2023-01-23T15:02:21.975Z,25.40
2023-01-23T15:05:12.203Z,32.67
2023-01-23T15:07:47.780Z,28.40
2023-01-23T15:10:26.860Z,29.93
2023-01-23T15:13:05.164Z,28.40
2023-01-23T15:15:35.249Z,29.87
2023-01-23T15:18:17.950Z,30.57
2023-01-23T15:20:57.169Z,29.40
2023-01-23T15:23:31.745Z,28.17
2023-01-23T15:26:26.168Z,31.37
2023-01-23T15:29:18.665Z,30.50
2023-01-23T15:31:50.767Z,29.77
2023-01-23T15:34:30.841Z,28.07
2023-01-23T15:37:13.677Z,29.23
2023-01-23T15:39:51.305Z,27.17
2023-01-23T15:42:18.241Z,25.83
2023-01-23T15:44:45.299Z,24.33
2023-01-23T15:47:12.447Z,27.30
2023-01-23T15:49:40.899Z,29.77
2023-01-23T15:52:22.961Z,32.53
2023-01-23T15:55:03.590Z,27.87
2023-01-23T15:57:31.670Z,23.73
2023-01-23T15:59:58.868Z,28.90
2023-01-23T16:02:31.696Z,29.60
2023-01-23T16:05:02.253Z,26.20
2023-01-23T16:07:35.002Z,25.97
2023-01-23T16:10:05.969Z,29.70
2023-01-23T16:12:38.789Z,30.93
2023-01-23T16:15:15.022Z,31.13
2023-01-23T16:17:42.095Z,28.73
2023-01-23T16:20:15.272Z,26.90
2023-01-23T16:22:43.003Z,30.47
2023-01-23T16:25:38.279Z,31.40
2023-01-23T16:28:21.426Z,25.93
2023-01-23T16:30:51.004Z,28.87
2023-01-23T16:33:18.844Z,28.43
2023-01-23T16:35:46.433Z,28.93
2023-01-23T16:38:22.956Z,25.10
2023-01-23T16:40:53.447Z,29.50
2023-01-23T16:43:21.588Z,29.17
2023-01-23T16:45:48.477Z,28.07
2023-01-23T16:48:25.337Z,27.33
2023-01-23T16:50:56.783Z,24.27
2023-01-23T16:53:29.951Z,24.87
2023-01-23T16:55:59.096Z,27.60
2023-01-23T16:58:32.429Z,29.03
2023-01-23T17:01:05.157Z,28.37
2023-01-23T17:03:37.733Z,25.23
2023-01-23T17:06:04.870Z,27.03
2023-01-23T17:08:34.480Z,27.67
2023-01-23T17:11:04.084Z,27.57
2023-01-23T17:13:33.656Z,24.67
2023-01-23T17:16:02.647Z,24.43
2023-01-23T17:18:32.972Z,25.30
2023-01-23T17:21:11.365Z,26.83
2023-01-23T17:23:41.344Z,27.73
2023-01-23T17:26:16.593Z,27.37
2023-01-23T17:28:43.897Z,29.20
2023-01-23T17:31:28.576Z,27.67
2023-01-23T17:33:56.305Z,28.80
2023-01-23T17:36:27.895Z,28.53
2023-01-23T17:38:57.499Z,27.73
2023-01-23T17:41:24.389Z,27.10
2023-01-23T17:43:52.810Z,28.40
2023-01-23T17:46:26.875Z,26.97
2023-01-23T17:48:55.779Z,26.07
2023-01-23T17:51:23.940Z,26.17
2023-01-23T17:53:51.673Z,27.57
2023-01-23T17:56:18.888Z,24.77
2023-01-23T17:58:45.800Z,27.40
2023-01-23T18:01:24.531Z,25.87
2023-01-23T18:03:55.410Z,26.17
2023-01-23T18:06:22.285Z,22.87
2023-01-23T18:08:49.814Z,25.80
2023-01-23T18:11:25.031Z,25.60
2023-01-23T18:14:35.432Z,25.20
2023-01-23T18:17:02.711Z,23.03
2023-01-23T18:19:30.331Z,28.03
2023-01-23T18:21:58.389Z,25.33
2023-01-23T18:24:32.609Z,25.33
2023-01-23T18:27:12.104Z,25.33
2023-01-23T18:29:57.955Z,24.73
2023-01-23T18:32:50.057Z,26.13
2023-01-23T18:35:55.461Z,27.67
2023-01-23T18:38:52.364Z,25.20
2023-01-23T18:41:26.339Z,28.77
2023-01-23T18:44:01.676Z,28.70
2023-01-23T18:46:28.689Z,28.63
2023-01-23T18:48:56.690Z,24.67
2023-01-23T18:51:54.767Z,29.23
2023-01-23T18:54:37.960Z,29.00
2023-01-23T18:57:04.846Z,28.30
2023-01-23T18:59:49.975Z,29.60
2023-01-23T19:02:45.139Z,24.07
2023-01-23T19:05:16.019Z,22.87
2023-01-23T19:07:45.151Z,27.53
2023-01-23T19:10:15.084Z,23.93
2023-01-23T19:12:48.881Z,25.93
2023-01-23T19:15:22.116Z,26.90
2023-01-23T19:18:14.465Z,26.03
2023-01-23T19:20:50.657Z,29.17
2023-01-23T19:23:42.783Z,25.93
2023-01-23T19:26:14.691Z,28.43
2023-01-23T19:28:41.847Z,25.03
2023-01-23T19:31:21.104Z,25.03
2023-01-23T19:33:56.264Z,26.70
2023-01-23T19:36:24.551Z,22.30
2023-01-23T19:38:52.669Z,23.70
2023-01-23T19:41:23.826Z,22.63
2023-01-23T19:43:58.123Z,25.47
2023-01-23T19:46:31.021Z,25.13
2023-01-23T19:48:59.340Z,23.57
2023-01-23T19:51:27.690Z,21.80
2023-01-23T19:53:57.518Z,23.30
2023-01-23T19:56:24.541Z,23.37
2023-01-23T19:58:51.584Z,23.10
2023-01-23T20:01:49.802Z,25.00
2023-01-23T20:04:20.766Z,21.67
2023-01-23T20:06:54.199Z,21.83
2023-01-23T20:09:21.677Z,22.60
2023-01-23T20:11:48.664Z,21.97
2023-01-23T20:14:15.766Z,24.43
2023-01-23T20:16:43.417Z,26.73
2023-01-23T20:19:14.753Z,22.27
2023-01-23T20:21:42.091Z,23.80
2023-01-23T20:24:12.173Z,22.53
2023-01-23T20:26:39.864Z,22.30
2023-01-23T20:29:12.160Z,23.53
2023-01-23T20:31:42.137Z,21.77
2023-01-23T20:34:12.137Z,21.97
2023-01-23T20:36:41.775Z,23.17
2023-01-23T20:39:10.602Z,24.03
2023-01-23T20:41:38.813Z,22.83
2023-01-23T20:44:06.050Z,28.40
2023-01-23T20:46:35.752Z,23.00
2023-01-23T20:49:03.514Z,25.10
2023-01-23T20:51:30.454Z,22.63
2023-01-23T20:54:00.336Z,25.90
2023-01-23T20:56:29.933Z,24.27
2023-01-23T20:59:18.843Z,25.33
2023-01-23T21:02:05.332Z,25.30
2023-01-23T21:04:35.233Z,24.23
2023-01-23T21:07:05.941Z,25.13
2023-01-23T21:09:32.955Z,25.17
2023-01-23T21:11:59.968Z,22.73
2023-01-23T21:14:27.189Z,26.47
2023-01-23T21:16:54.490Z,23.37
2023-01-23T21:19:21.684Z,25.47
2023-01-23T21:21:48.701Z,26.33
2023-01-23T21:24:16.488Z,21.60
2023-01-23T21:26:43.859Z,23.60
2023-01-23T21:29:11.729Z,24.70
2023-01-23T21:31:39.488Z,25.23
2023-01-23T21:34:12.521Z,27.87
2023-01-23T21:36:41.236Z,25.67
2023-01-23T21:39:10.412Z,24.43
2023-01-23T21:41:37.745Z,24.53
2023-01-23T21:44:04.867Z,28.10
2023-01-23T21:46:32.012Z,22.83
2023-01-23T21:48:59.464Z,24.07
2023-01-23T21:51:27.910Z,24.77
2023-01-23T21:53:55.156Z,22.03
2023-01-23T21:56:23.657Z,25.37
2023-01-23T21:58:51.060Z,24.20
2023-01-23T22:01:41.125Z,22.30
2023-01-23T22:04:18.687Z,24.30
2023-01-23T22:06:46.781Z,22.93
2023-01-23T22:09:18.449Z,22.33
2023-01-23T22:11:46.652Z,24.90
2023-01-23T22:14:14.139Z,24.17
2023-01-23T22:16:48.522Z,21.30
2023-01-23T22:19:18.473Z,23.23
2023-01-23T22:21:46.649Z,24.57
2023-01-23T22:24:14.430Z,25.37
2023-01-23T22:26:41.389Z,23.53
2023-01-23T22:29:08.854Z,20.43
2023-01-23T22:31:36.163Z,19.60
2023-01-23T22:34:03.473Z,23.23
2023-01-23T22:36:30.214Z,24.53
2023-01-23T22:38:57.188Z,24.90
2023-01-23T22:41:24.740Z,19.33
2023-01-23T22:43:55.659Z,21.00
2023-01-23T22:46:23.962Z,21.00
2023-01-23T22:48:51.341Z,21.20
2023-01-23T22:51:19.931Z,20.20
2023-01-23T22:53:47.175Z,19.63
2023-01-23T22:56:14.812Z,19.63
2023-01-23T22:58:48.779Z,22.93
2023-01-23T23:01:17.024Z,19.60
2023-01-23T23:03:45.215Z,17.80
2023-01-23T23:06:14.385Z,17.40
2023-01-23T23:08:41.900Z,15.07
2023-01-23T23:11:16.716Z,15.33
2023-01-23T23:13:43.771Z,11.13
2023-01-23T23:16:20.856Z,15.00
2023-01-23T23:18:49.520Z,13.53
2023-01-23T23:21:18.569Z,11.60
2023-01-23T23:23:45.867Z,14.43
2023-01-23T23:26:13.822Z,14.93
2023-01-23T23:28:41.014Z,13.40
2023-01-23T23:31:09.206Z,14.53
2023-01-23T23:33:36.732Z,15.07
2023-01-23T23:36:03.967Z,13.87
2023-01-23T23:38:30.801Z,15.90
2023-01-23T23:41:03.455Z,15.20
2023-01-23T23:43:30.528Z,15.73
2023-01-23T23:45:59.716Z,13.27
2023-01-23T23:48:28.009Z,12.93
2023-01-23T23:50:55.104Z,14.60
2023-01-23T23:53:23.226Z,17.83
2023-01-23T23:55:50.133Z,14.03
2023-01-23T23:58:17.167Z,15.23
